Time;durP1;ratioP1;P1;durP2;ratioP2;P2;SDS_P1;SDS_P2;PMS_P1;PMS_P2;Temp;Humidity;BMP_temperature;BMP_pressure;BME280_temperature;BME280_humidity;BME280_pressure;Samples;Min_cycle;Max_cycle;Signal;HPM_P1;HPM_P2
2022/11/03 00:00:41;;;;;;;30.90;14.87;;;;;;;4.32;75.44;100976.08;2183104;80;21054;-72
2022/11/03 00:03:42;;;;;;;31.23;14.85;;;;;;;4.24;75.34;100978.39;2185813;80;21029;-71
2022/11/03 00:06:47;;;;;;;38.65;14.60;;;;;;;4.12;75.09;100979.23;2188266;80;20991;-72
2022/11/03 00:09:48;;;;;;;31.90;16.35;;;;;;;4.03;75.81;100980.23;2183164;80;22113;-73
2022/11/03 00:12:49;;;;;;;31.30;14.63;;;;;;;4.06;76.15;100983.13;2189652;81;21025;-72
2022/11/03 00:15:50;;;;;;;29.05;13.72;;;;;;;4.05;76.25;100978.80;2191054;80;21512;-73
2022/11/03 00:18:53;;;;;;;24.25;12.50;;;;;;;4.02;76.30;100979.84;2184806;80;21501;-74
2022/11/03 00:21:54;;;;;;;22.15;12.73;;;;;;;3.98;76.29;100981.00;2183362;80;21041;-72
2022/11/03 00:24:55;;;;;;;23.62;12.13;;;;;;;3.94;76.40;100983.48;2182742;80;21028;-74
2022/11/03 00:27:56;;;;;;;20.25;11.35;;;;;;;3.90;76.38;100978.05;2187653;81;21019;-73
2022/11/03 00:30:57;;;;;;;19.25;10.13;;;;;;;3.92;77.25;100970.92;2184964;80;20998;-71
2022/11/03 00:34:00;;;;;;;18.92;9.53;;;;;;;3.96;77.30;100975.00;2188365;80;21474;-71
2022/11/03 00:37:00;;;;;;;26.73;10.43;;;;;;;3.98;77.39;100981.00;2210218;79;21087;-71
2022/11/03 00:40:02;;;;;;;10.28;7.55;;;;;;;3.94;77.02;100977.36;2184821;81;20986;-72
2022/11/03 00:43:03;;;;;;;10.10;6.53;;;;;;;3.90;77.06;100975.42;2187844;80;20971;-71
2022/11/03 00:46:06;;;;;;;12.07;7.45;;;;;;;3.87;77.17;100971.69;2183504;80;21093;-72
2022/11/03 00:49:07;;;;;;;7.83;5.72;;;;;;;3.86;77.06;100967.39;2188157;80;21898;-71
2022/11/03 00:52:08;;;;;;;9.70;6.00;;;;;;;3.81;77.10;100976.05;2183625;80;21054;-72
2022/11/03 00:55:09;;;;;;;14.00;6.08;;;;;;;3.77;77.09;100971.92;2183420;80;21025;-71
2022/11/03 00:58:10;;;;;;;12.70;6.22;;;;;;;3.76;77.31;100971.56;2176902;80;21034;-71
2022/11/03 01:01:19;;;;;;;13.43;7.05;;;;;;;3.71;77.38;100968.40;2180216;80;21026;-72
2022/11/03 01:07:39;;;;;;;15.45;7.67;;;;;;;3.58;77.41;100968.39;2188768;80;21057;-73
2022/11/03 01:11:42;;;;;;;12.50;7.40;;;;;;;3.46;77.47;100964.76;2183078;80;20980;-75
2022/11/03 01:13:43;;;;;;;21.85;8.35;;;;;;;3.38;77.50;100965.76;2179827;80;20999;-73
2022/11/03 01:16:44;;;;;;;15.60;8.83;;;;;;;3.30;77.63;100970.66;2181814;80;21023;-71
2022/11/03 01:19:45;;;;;;;14.50;8.53;;;;;;;3.24;77.75;100968.41;2181885;80;20935;-72
2022/11/03 01:22:47;;;;;;;17.05;8.85;;;;;;;3.19;77.62;100962.64;2181632;81;21033;-72
2022/11/03 01:25:48;;;;;;;14.95;8.65;;;;;;;3.17;77.71;100977.62;2182839;80;21052;-72
2022/11/03 01:28:49;;;;;;;12.68;7.10;;;;;;;3.12;77.64;100973.50;2174779;80;21480;-72
2022/11/03 01:31:50;;;;;;;18.85;9.13;;;;;;;3.05;77.36;100974.84;2188134;80;21089;-72
2022/11/03 01:34:51;;;;;;;17.05;8.18;;;;;;;3.01;77.33;100974.65;2184044;80;21594;-74
2022/11/03 01:37:55;;;;;;;16.25;9.15;;;;;;;2.92;77.58;100968.69;2190231;80;21053;-72
2022/11/03 01:40:56;;;;;;;15.00;8.70;;;;;;;2.89;77.91;100974.12;2190012;80;20974;-71
2022/11/03 01:44:14;;;;;;;17.07;8.63;;;;;;;2.82;77.84;100971.05;2183586;80;21022;-72
2022/11/03 01:47:28;;;;;;;17.92;8.18;;;;;;;2.77;77.94;100961.80;2179549;80;21648;-71
2022/11/03 01:50:29;;;;;;;17.87;8.10;;;;;;;2.75;78.16;100967.12;2189280;80;21026;-72
2022/11/03 01:53:31;;;;;;;17.02;9.50;;;;;;;2.73;77.83;100961.59;2187575;80;21041;-72
2022/11/03 01:56:37;;;;;;;15.93;8.43;;;;;;;2.72;77.84;100962.55;2187039;80;21057;-73
2022/11/03 01:59:40;;;;;;;18.90;9.03;;;;;;;2.67;77.58;100960.20;2182673;80;21048;-72
2022/11/03 02:02:42;;;;;;;12.53;6.60;;;;;;;2.62;77.25;100959.20;2188073;80;20966;-72
2022/11/03 02:05:46;;;;;;;9.93;6.92;;;;;;;2.58;77.20;100962.92;2184836;80;21472;-72
2022/11/03 02:08:51;;;;;;;12.60;7.35;;;;;;;2.49;77.06;100959.57;2190408;81;21045;-73
2022/11/03 02:12:05;;;;;;;11.68;7.17;;;;;;;2.41;77.11;100961.81;2187921;81;21600;-73
2022/11/03 02:15:10;;;;;;;9.28;6.33;;;;;;;2.36;77.22;100963.39;2185156;80;21065;-70
2022/11/03 02:18:12;;;;;;;29.87;8.13;;;;;;;2.36;77.30;100956.01;2188372;80;21104;-73
2022/11/03 02:21:27;;;;;;;13.50;6.87;;;;;;;2.34;77.49;100955.28;2173335;79;20979;-70
2022/11/03 02:24:54;;;;;;;11.45;7.25;;;;;;;2.35;77.32;100947.79;2195161;80;21501;-70
2022/11/03 02:27:55;;;;;;;15.38;8.60;;;;;;;2.34;77.61;100950.88;2181127;80;21580;-72
2022/11/03 02:31:20;;;;;;;10.25;6.55;;;;;;;2.30;77.69;100944.12;2185510;79;21450;-70
2022/11/03 02:34:29;;;;;;;11.68;6.60;;;;;;;2.24;77.55;100948.44;2207531;79;21489;-70
2022/11/03 02:37:39;;;;;;;15.78;7.60;;;;;;;2.15;77.50;100944.60;2191948;80;20998;-71
2022/11/03 02:40:48;;;;;;;15.05;8.20;;;;;;;2.10;77.75;100944.03;2178854;81;21482;-71
2022/11/03 02:43:51;;;;;;;14.73;7.78;;;;;;;2.06;77.70;100945.63;2193143;80;21053;-71
2022/11/03 02:46:57;;;;;;;16.20;8.38;;;;;;;1.99;78.02;100939.90;2182002;80;21650;-70
2022/11/03 02:49:58;;;;;;;18.40;9.90;;;;;;;1.98;78.34;100936.92;2188537;80;21572;-71
2022/11/03 02:53:00;;;;;;;15.55;8.93;;;;;;;1.97;78.36;100935.22;2184769;80;21489;-71
2022/11/03 02:56:06;;;;;;;15.55;8.10;;;;;;;1.90;78.38;100933.91;2188251;80;21053;-71
2022/11/03 02:59:13;;;;;;;16.23;9.05;;;;;;;1.86;78.62;100924.11;2206665;79;21041;-71
2022/11/03 03:02:18;;;;;;;23.75;10.63;;;;;;;1.84;78.72;100923.34;2186257;80;20943;-71
2022/11/03 03:05:26;;;;;;;44.45;17.57;;;;;;;1.81;78.60;100926.62;2188757;81;20990;-71
2022/11/03 03:08:29;;;;;;;38.63;14.98;;;;;;;1.73;78.72;100925.28;2185891;80;20999;-71
2022/11/03 03:11:36;;;;;;;29.52;13.08;;;;;;;1.65;78.86;100921.43;2182631;80;21022;-70
2022/11/03 03:14:41;;;;;;;25.02;13.00;;;;;;;1.63;79.15;100923.28;2179662;80;20998;-70
2022/11/03 03:17:56;;;;;;;27.60;12.00;;;;;;;1.61;78.95;100925.17;2185493;80;21057;-71
2022/11/03 03:21:09;;;;;;;18.87;10.25;;;;;;;1.58;78.90;100919.66;2181853;80;21022;-71
2022/11/03 03:24:27;;;;;;;20.15;10.60;;;;;;;1.50;78.98;100919.25;2168367;80;21031;-72
2022/11/03 03:27:32;;;;;;;16.60;9.28;;;;;;;1.51;78.81;100917.00;2182560;81;21057;-72
2022/11/03 03:30:40;;;;;;;16.62;9.40;;;;;;;1.49;78.85;100916.23;2184122;80;21089;-72
2022/11/03 03:33:43;;;;;;;19.98;10.00;;;;;;;1.47;78.58;100915.51;2180788;80;21005;-72
2022/11/03 03:36:47;;;;;;;17.87;9.03;;;;;;;1.48;78.54;100905.41;2190748;80;21045;-72
2022/11/03 03:39:53;;;;;;;18.45;9.28;;;;;;;1.43;78.29;100908.28;2180004;80;21447;-72
2022/11/03 03:42:56;;;;;;;20.55;9.98;;;;;;;1.42;78.26;100904.47;2180457;80;21022;-72
2022/11/03 03:46:03;;;;;;;15.98;8.80;;;;;;;1.43;78.47;100904.83;2178213;80;20998;-73
2022/11/03 03:49:05;;;;;;;18.15;10.18;;;;;;;1.45;78.76;100896.44;2189863;80;21047;-73
2022/11/03 03:52:08;;;;;;;22.48;8.93;;;;;;;1.44;78.52;100898.22;2187811;80;21041;-72
2022/11/03 03:55:22;;;;;;;23.32;9.48;;;;;;;1.42;78.37;100890.92;2177384;80;21076;-73
2022/11/03 03:58:23;;;;;;;20.37;9.68;;;;;;;1.37;78.29;100882.49;2182289;80;20963;-72
2022/11/03 04:01:24;;;;;;;;;;;;;;;1.34;78.51;100892.66;2185618;80;21501;-73
2022/11/03 04:04:24;;;;;;;17.98;10.28;;;;;;;1.31;78.50;100890.23;2183143;80;20964;-75
2022/11/03 04:24:04;;;;;;;21.60;10.90;;;;;;;0.97;78.64;100888.70;2188480;80;21627;-71
2022/11/03 04:27:32;;;;;;;21.97;11.40;;;;;;;0.92;78.56;100888.58;2153781;80;21065;-73
2022/11/03 04:30:33;;;;;;;21.90;10.78;;;;;;;0.89;78.96;100885.67;2178699;80;21013;-71
2022/11/03 04:33:34;;;;;;;;;;;;;;;0.86;79.24;100887.16;2194458;80;22306;-70
2022/11/03 04:36:35;;;;;;;17.98;10.90;;;;;;;0.87;79.18;100879.24;2189313;80;20164;-70
2022/11/03 04:39:36;;;;;;;;;;;;;;;0.83;79.22;100873.79;2189777;80;21105;-71
2022/11/03 04:42:37;;;;;;;13.85;10.18;;;;;;;0.76;79.22;100866.38;2189583;80;20175;-71
2022/11/03 04:45:39;;;;;;;16.80;9.05;;;;;;;0.73;79.27;100871.30;2159876;81;21052;-70
2022/11/03 04:48:41;;;;;;;19.10;10.00;;;;;;;0.79;79.18;100865.77;2185464;80;21053;-71
2022/11/03 04:51:42;;;;;;;29.07;12.65;;;;;;;0.81;79.19;100870.88;2176637;80;21615;-71
2022/11/03 04:54:45;;;;;;;24.30;12.53;;;;;;;0.79;79.29;100864.89;2184368;80;21437;-72
2022/11/03 04:57:50;;;;;;;28.27;11.15;;;;;;;0.78;79.44;100861.91;2180060;80;21073;-72
2022/11/03 05:00:55;;;;;;;25.72;11.35;;;;;;;0.79;79.15;100860.53;2180538;80;21021;-71
2022/11/03 05:03:56;;;;;;;22.95;10.03;;;;;;;0.81;79.40;100852.59;2189432;80;20955;-71
2022/11/03 05:06:57;;;;;;;20.32;11.10;;;;;;;0.80;79.04;100855.67;2184209;80;21290;-71
2022/11/03 05:09:59;;;;;;;19.92;11.80;;;;;;;0.77;79.02;100857.16;2186739;80;21018;-72
2022/11/03 05:13:01;;;;;;;17.73;9.35;;;;;;;0.76;79.00;100857.23;2190463;80;21014;-71
2022/11/03 05:16:04;;;;;;;18.82;9.68;;;;;;;0.77;78.94;100860.24;2181118;81;20986;-71
2022/11/03 05:19:26;;;;;;;24.40;12.28;;;;;;;0.72;78.80;100850.04;2184245;80;21554;-71
2022/11/03 05:22:33;;;;;;;20.80;11.25;;;;;;;0.70;79.37;100848.44;2171129;80;21026;-71
2022/11/03 05:25:48;;;;;;;23.25;11.75;;;;;;;0.66;79.58;100849.08;2184015;80;21002;-71
2022/11/03 05:29:03;;;;;;;21.55;13.08;;;;;;;0.61;79.45;100850.63;2193469;80;21013;-71
2022/11/03 05:32:11;;;;;;;24.75;13.55;;;;;;;0.58;79.54;100849.50;2184802;81;21018;-73
2022/11/03 05:35:21;;;;;;;27.37;16.40;;;;;;;0.56;79.42;100837.45;2184424;80;21072;-73
2022/11/03 05:38:23;;;;;;;27.77;14.98;;;;;;;0.46;79.42;100837.13;2181647;81;20991;-73
2022/11/03 05:41:27;;;;;;;26.15;12.47;;;;;;;0.41;79.74;100841.28;2181438;80;20970;-74
2022/11/03 05:44:38;;;;;;;21.62;11.35;;;;;;;0.41;79.55;100841.75;2182785;80;20986;-76
2022/11/03 05:47:40;;;;;;;19.65;10.65;;;;;;;0.40;79.60;100841.39;2187964;80;20973;-75
2022/11/03 05:50:51;;;;;;;16.20;10.48;;;;;;;0.38;79.40;100839.31;2180128;81;21029;-84
2022/11/03 06:07:34;;;;;;;15.65;7.83;;;;;;;0.41;79.89;100842.59;2169917;79;22435;-80
2022/11/03 06:10:40;;;;;;;18.15;8.50;;;;;;;0.40;80.01;100841.39;2208298;79;21025;-79
2022/11/03 06:13:41;;;;;;;16.57;9.83;;;;;;;0.40;80.39;100843.53;2204789;79;21084;-79
2022/11/03 06:16:57;;;;;;;37.98;19.52;;;;;;;0.48;80.92;100834.41;2203738;79;20947;-80
2022/11/03 06:19:59;;;;;;;38.60;18.67;;;;;;;0.62;81.59;100843.63;2209576;79;20966;-80
2022/11/03 06:23:01;;;;;;;46.70;23.35;;;;;;;0.86;82.01;100841.42;2202271;79;21481;-81
2022/11/03 06:26:03;;;;;;;40.40;18.30;;;;;;;1.15;82.33;100839.75;2208232;79;20997;-80
2022/11/03 06:29:04;;;;;;;40.03;21.45;;;;;;;1.48;82.55;100850.02;2216734;79;21077;-79
2022/11/03 06:32:09;;;;;;;36.63;20.05;;;;;;;1.81;82.41;100853.34;2207171;79;21489;-80
2022/11/03 06:35:12;;;;;;;29.63;15.98;;;;;;;2.10;82.46;100831.45;2206679;79;21018;-81
2022/11/03 06:38:24;;;;;;;38.02;20.10;;;;;;;2.38;82.46;100829.73;2203291;79;21496;-83
2022/11/03 06:41:28;;;;;;;40.08;21.70;;;;;;;2.65;82.41;100831.08;2210004;79;21001;-82
2022/11/03 06:44:29;;;;;;;25.88;14.03;;;;;;;2.93;82.31;100831.45;2219165;79;21535;-82
2022/11/03 06:47:31;;;;;;;;;;;;;;;3.25;82.22;100827.16;2216998;79;20981;-81
2022/11/03 06:50:33;;;;;;;22.35;12.98;;;;;;;3.65;82.25;100841.52;2205313;79;20121;-82
2022/11/03 06:53:36;;;;;;;26.65;13.78;;;;;;;4.02;82.03;100835.40;2209441;79;21017;-83
2022/11/03 06:56:37;;;;;;;24.65;13.62;;;;;;;4.28;81.71;100831.44;2205190;79;21112;-84
2022/11/03 06:59:38;;;;;;;30.27;17.07;;;;;;;4.49;81.38;100833.00;2204839;79;20998;-82
2022/11/03 07:03:15;;;;;;;46.35;24.00;;;;;;;4.57;80.96;100829.83;2211172;79;21432;-82
2022/11/03 07:06:28;;;;;;;50.83;26.50;;;;;;;4.58;80.74;100830.18;2194090;79;20995;-83
2022/11/03 07:09:29;;;;;;;27.42;13.60;;;;;;;4.65;80.98;100831.42;2141183;82;21021;-84
2022/11/03 07:12:30;;;;;;;24.67;13.32;;;;;;;4.76;80.96;100835.43;2174674;81;21100;-84
2022/11/03 07:15:36;;;;;;;26.85;12.80;;;;;;;4.86;80.90;100837.73;2178127;81;20972;-83
2022/11/03 07:18:43;;;;;;;33.45;16.77;;;;;;;4.88;80.80;100827.95;2147943;81;21073;-80
2022/11/03 07:21:52;;;;;;;32.48;18.65;;;;;;;4.96;80.87;100830.50;2154978;81;21427;-82
2022/11/03 07:24:58;;;;;;;29.75;16.07;;;;;;;5.03;80.93;100828.60;2178143;81;21086;-82
2022/11/03 07:28:01;;;;;;;34.27;17.52;;;;;;;5.13;81.09;100823.03;2142453;81;20997;-82
2022/11/03 07:31:13;;;;;;;30.55;14.35;;;;;;;5.24;81.22;100825.34;2179100;81;21030;-82
2022/11/03 07:34:19;;;;;;;33.83;15.88;;;;;;;5.34;81.27;100820.56;2141027;83;20998;-82
2022/11/03 07:37:23;;;;;;;24.82;14.43;;;;;;;5.49;81.45;100822.98;2178993;81;20974;-82
2022/11/03 07:40:26;;;;;;;25.62;15.23;;;;;;;5.67;81.60;100816.33;2175005;81;21453;-83
2022/11/03 07:43:37;;;;;;;24.77;14.05;;;;;;;5.91;81.72;100820.16;2178065;81;20994;-82
2022/11/03 07:46:38;;;;;;;26.48;13.32;;;;;;;6.21;81.70;100820.08;2142418;83;21045;-81
2022/11/03 07:49:40;;;;;;;27.58;13.90;;;;;;;6.59;81.74;100814.84;2152953;82;21042;-81
2022/11/03 07:52:41;;;;;;;30.97;15.85;;;;;;;6.90;81.47;100808.77;2131706;82;21002;-81
2022/11/03 07:55:45;;;;;;;26.95;15.53;;;;;;;7.32;81.40;100802.66;2149607;82;20936;-82
2022/11/03 07:59:00;;;;;;;26.62;14.20;;;;;;;7.81;81.34;100792.73;2151684;81;21098;-83
2022/11/03 08:02:05;;;;;;;27.05;13.70;;;;;;;8.21;80.31;100805.11;2159072;81;21043;-82
2022/11/03 08:05:08;;;;;;;19.23;9.70;;;;;;;8.58;79.85;100795.27;2170900;81;21066;-81
2022/11/03 08:08:09;;;;;;;19.37;11.12;;;;;;;8.70;79.15;100800.80;2198710;79;21057;-83
2022/11/03 08:11:10;;;;;;;20.50;8.85;;;;;;;9.11;79.59;100788.74;2189153;79;21514;-80
2022/11/03 08:14:12;;;;;;;16.82;8.68;;;;;;;9.53;79.00;100788.39;2196087;79;21061;-83
2022/11/03 08:17:16;;;;;;;12.50;6.92;;;;;;;9.84;78.28;100779.21;2199882;79;20998;-83
2022/11/03 08:20:17;;;;;;;12.30;6.70;;;;;;;10.25;78.21;100775.74;2197609;79;20966;-83
2022/11/03 08:23:18;;;;;;;15.13;7.85;;;;;;;10.68;76.44;100760.95;2208691;79;21402;-82
2022/11/03 08:26:20;;;;;;;11.43;6.62;;;;;;;10.89;76.03;100757.97;2200172;79;21025;-83
2022/11/03 08:29:21;;;;;;;14.18;6.85;;;;;;;10.86;74.83;100745.01;2170704;79;20997;-84
2022/11/03 08:32:22;;;;;;;12.10;6.35;;;;;;;11.04;75.29;100747.66;2197052;79;21578;-82
2022/11/03 08:35:23;;;;;;;10.85;6.30;;;;;;;11.36;75.08;100743.05;2198694;79;20974;-82
2022/11/03 08:38:24;;;;;;;10.63;5.78;;;;;;;11.67;74.17;100731.93;2200009;79;21013;-82
2022/11/03 08:41:25;;;;;;;12.68;5.95;;;;;;;11.71;72.06;100727.12;2205485;79;21001;-82
2022/11/03 08:44:26;;;;;;;9.20;5.62;;;;;;;11.85;69.84;100734.48;2198600;78;21021;-83
2022/11/03 08:47:27;;;;;;;44.15;8.03;;;;;;;11.74;68.78;100732.97;2208969;79;20989;-83
2022/11/03 08:50:29;;;;;;;11.68;5.80;;;;;;;11.86;71.44;100727.73;2199199;79;20989;-83
2022/11/03 08:53:30;;;;;;;10.68;5.58;;;;;;;12.04;70.49;100726.79;2208582;79;21474;-83
2022/11/03 08:56:31;;;;;;;10.93;5.20;;;;;;;12.10;70.25;100711.50;2197405;79;21029;-83
2022/11/03 08:59:32;;;;;;;9.40;4.92;;;;;;;12.28;70.28;100710.08;2200970;79;20975;-83
2022/11/03 09:02:33;;;;;;;9.55;5.50;;;;;;;12.37;67.68;100706.92;2200826;79;20946;-82
2022/11/03 09:05:34;;;;;;;11.80;4.92;;;;;;;12.44;69.52;100707.41;2194282;79;21474;-83
2022/11/03 09:08:36;;;;;;;11.45;5.50;;;;;;;12.61;69.48;100699.45;2142854;82;21018;-81
2022/11/03 09:11:37;;;;;;;9.45;5.22;;;;;;;12.63;67.95;100692.96;2148206;82;21002;-82
2022/11/03 09:14:38;;;;;;;9.00;4.40;;;;;;;12.58;67.93;100691.30;2152199;82;20995;-82
2022/11/03 09:17:39;;;;;;;12.60;5.80;;;;;;;12.63;66.99;100686.81;2152041;82;20959;-83
2022/11/03 09:20:41;;;;;;;13.25;5.10;;;;;;;12.58;67.08;100677.16;2147426;83;21037;-82
2022/11/03 09:23:42;;;;;;;13.95;4.92;;;;;;;12.57;66.34;100671.00;2163790;81;20989;-82
2022/11/03 09:26:43;;;;;;;10.15;4.83;;;;;;;12.47;65.42;100673.84;2185280;81;21017;-83
2022/11/03 09:29:44;;;;;;;10.98;4.87;;;;;;;12.48;66.13;100658.70;2179547;81;21042;-83
2022/11/03 09:32:45;;;;;;;12.65;4.58;;;;;;;12.70;66.58;100654.03;2142643;81;21022;-83
2022/11/03 09:35:46;;;;;;;14.43;5.03;;;;;;;12.96;64.55;100651.17;2175882;81;20991;-82
2022/11/03 09:38:47;;;;;;;10.35;4.70;;;;;;;12.96;64.69;100644.51;2141016;82;21377;-82
2022/11/03 09:41:50;;;;;;;14.38;5.67;;;;;;;13.14;65.36;100640.30;2177614;81;21372;-81
2022/11/03 09:44:53;;;;;;;8.58;4.30;;;;;;;13.20;64.44;100636.94;2179543;81;20977;-83
2022/11/03 09:47:55;;;;;;;11.78;4.75;;;;;;;13.35;64.09;100631.78;2147759;81;21047;-82
2022/11/03 09:50:56;;;;;;;11.10;4.25;;;;;;;13.35;63.54;100626.45;2183526;81;21494;-82
2022/11/03 09:54:02;;;;;;;10.13;4.60;;;;;;;13.47;64.20;100624.23;2179628;81;21501;-81
2022/11/03 09:57:10;;;;;;;12.15;4.92;;;;;;;13.48;62.15;100625.06;2196880;80;21072;-81
2022/11/03 10:00:18;;;;;;;12.13;4.33;;;;;;;13.53;63.20;100615.53;2145932;82;21514;-82
2022/11/03 10:03:20;;;;;;;11.43;4.35;;;;;;;13.64;62.84;100620.98;2147143;82;21553;-79
2022/11/03 10:06:21;;;;;;;7.85;4.87;;;;;;;13.57;61.74;100609.34;2193348;78;21005;-82
2022/11/03 10:09:24;;;;;;;12.05;4.35;;;;;;;13.57;61.43;100605.34;2193221;80;21017;-81
2022/11/03 10:12:27;;;;;;;13.85;4.85;;;;;;;13.64;61.31;100602.33;2194747;80;21004;-82
2022/11/03 10:15:28;;;;;;;7.67;4.22;;;;;;;13.64;62.29;100587.16;2208468;79;21058;-81
2022/11/03 10:18:30;;;;;;;13.98;4.75;;;;;;;13.51;61.75;100584.22;2210428;79;20959;-80
2022/11/03 10:21:36;;;;;;;11.43;4.97;;;;;;;13.54;61.29;100583.86;2171862;79;21520;-82
2022/11/03 10:24:37;;;;;;;12.25;4.87;;;;;;;13.45;61.85;100578.25;2198099;79;21042;-82
2022/11/03 10:27:38;;;;;;;13.32;4.95;;;;;;;13.51;61.94;100571.39;2194077;80;21464;-81
2022/11/03 10:30:57;;;;;;;9.20;3.72;;;;;;;13.53;61.38;100560.06;2194764;80;21532;-82
2022/11/03 10:34:00;;;;;;;11.93;4.83;;;;;;;13.48;59.53;100564.58;2207597;79;21073;-82
2022/11/03 10:37:12;;;;;;;16.97;4.10;;;;;;;13.47;61.51;100554.10;2193090;79;21089;-82
2022/11/03 10:40:34;;;;;;;12.60;5.08;;;;;;;13.45;61.04;100548.42;2185227;79;21011;-82
2022/11/03 10:43:37;;;;;;;14.15;4.47;;;;;;;13.48;61.01;100543.75;2198970;80;21499;-81
2022/11/03 10:46:40;;;;;;;20.08;4.45;;;;;;;13.50;61.46;100541.75;2197539;80;20991;-82
2022/11/03 10:49:41;;;;;;;13.88;4.22;;;;;;;13.49;61.16;100544.07;2195610;80;21083;-81
2022/11/03 10:52:42;;;;;;;9.55;4.12;;;;;;;13.55;60.33;100532.73;2197294;80;20990;-80
2022/11/03 10:55:43;;;;;;;8.15;3.15;;;;;;;13.61;60.42;100522.69;2218182;79;20966;-81
2022/11/03 10:58:45;;;;;;;11.63;3.85;;;;;;;13.62;58.97;100512.34;2199080;80;20991;-82
2022/11/03 11:01:46;;;;;;;17.75;3.98;;;;;;;13.63;59.27;100512.17;2207409;79;21012;-81
2022/11/03 11:04:55;;;;;;;11.40;3.72;;;;;;;13.73;59.49;100511.11;2200948;79;21019;-82
2022/11/03 11:07:58;;;;;;;11.45;3.65;;;;;;;13.84;58.77;100503.52;2200542;79;21050;-81
2022/11/03 11:11:05;;;;;;;11.75;4.03;;;;;;;13.94;57.68;100498.42;2193528;79;20950;-82
2022/11/03 11:14:28;;;;;;;10.08;4.03;;;;;;;14.04;57.90;100499.84;2200627;79;20955;-82
2022/11/03 11:17:41;;;;;;;10.03;3.87;;;;;;;14.14;56.86;100487.60;2194175;79;21532;-82
2022/11/03 11:20:42;;;;;;;9.88;3.80;;;;;;;14.18;58.35;100483.55;2197729;79;20979;-81
2022/11/03 11:23:45;;;;;;;9.98;4.03;;;;;;;14.31;57.53;100476.27;2198646;79;21112;-83
2022/11/03 11:26:49;;;;;;;10.05;4.08;;;;;;;14.36;57.77;100471.21;2160829;79;21006;-83
2022/11/03 11:29:49;;;;;;;12.50;4.45;;;;;;;14.26;56.94;100471.46;2192674;79;20978;-82
2022/11/03 11:33:11;;;;;;;10.30;3.58;;;;;;;14.35;57.16;100475.70;2189400;79;21029;-81
2022/11/03 11:36:22;;;;;;;11.18;4.10;;;;;;;14.38;57.58;100463.83;2196156;78;21013;-80
2022/11/03 11:39:30;;;;;;;10.18;4.00;;;;;;;14.39;55.59;100460.65;2164894;79;21014;-81
2022/11/03 11:42:30;;;;;;;11.75;3.83;;;;;;;14.33;56.85;100457.72;2194133;79;20972;-82
2022/11/03 11:46:23;;;;;;;12.73;3.65;;;;;;;14.29;56.41;100451.08;2201396;79;21564;-82
2022/11/03 11:49:24;;;;;;;11.75;4.65;;;;;;;14.32;57.31;100442.70;2202761;79;21010;-81
2022/11/03 11:52:26;;;;;;;12.05;3.95;;;;;;;14.35;56.28;100438.84;2202066;79;20947;-83
2022/11/03 11:55:37;;;;;;;14.40;4.42;;;;;;;14.32;56.09;100440.03;2193574;79;21044;-81
2022/11/03 11:58:52;;;;;;;10.20;4.05;;;;;;;14.31;56.66;100419.70;2192715;79;21025;-83
2022/11/03 12:01:55;;;;;;;10.93;4.78;;;;;;;14.29;56.72;100418.22;2202225;79;20958;-80
2022/11/03 12:05:01;;;;;;;12.30;4.25;;;;;;;14.18;55.76;100410.67;2195070;79;21025;-81
2022/11/03 12:08:02;;;;;;;11.55;4.40;;;;;;;14.05;56.62;100405.95;2196085;79;21049;-81
2022/11/03 12:11:05;;;;;;;8.45;3.98;;;;;;;13.94;56.71;100397.91;2167912;79;21533;-83
2022/11/03 12:14:29;;;;;;;12.50;3.95;;;;;;;13.80;56.93;100390.20;2196192;79;21510;-81
2022/11/03 12:17:31;;;;;;;10.88;4.42;;;;;;;13.78;57.39;100380.22;2196458;79;21643;-82
2022/11/03 12:20:35;;;;;;;12.53;4.17;;;;;;;13.82;57.50;100380.16;2185772;79;21533;-82
2022/11/03 12:23:43;;;;;;;8.20;3.83;;;;;;;13.83;56.28;100382.35;2199411;79;21489;-82
2022/11/03 12:26:44;;;;;;;9.98;4.10;;;;;;;13.81;56.98;100379.03;2195905;79;21013;-82
2022/11/03 12:29:45;;;;;;;12.45;3.67;;;;;;;13.82;56.53;100383.34;2196306;79;21047;-82
2022/11/03 12:32:47;;;;;;;11.95;4.28;;;;;;;13.81;57.29;100386.52;2189950;79;21014;-82
2022/11/03 12:35:48;;;;;;;9.38;4.28;;;;;;;13.86;56.75;100381.48;2193229;79;21526;-82
2022/11/03 12:38:49;;;;;;;9.05;3.90;;;;;;;13.92;56.60;100370.58;2187711;79;21477;-81
2022/11/03 12:41:50;;;;;;;7.42;3.85;;;;;;;13.98;56.35;100374.36;2195018;79;20955;-82
2022/11/03 12:44:52;;;;;;;12.43;4.45;;;;;;;13.91;56.36;100368.94;2166461;79;20954;-82
2022/11/03 12:47:53;;;;;;;7.55;3.45;;;;;;;13.85;56.68;100365.64;2197742;79;20978;-82
2022/11/03 12:50:54;;;;;;;8.38;3.60;;;;;;;13.88;55.85;100356.80;2197260;79;21457;-82
2022/11/03 12:53:55;;;;;;;9.15;3.33;;;;;;;13.80;55.26;100354.20;2199459;79;21045;-82
2022/11/03 12:56:56;;;;;;;10.23;3.87;;;;;;;13.78;56.16;100346.06;2198539;79;21418;-81
2022/11/03 12:59:57;;;;;;;8.90;3.72;;;;;;;13.72;56.44;100336.95;2198231;79;21481;-83
2022/11/03 13:02:59;;;;;;;13.43;4.30;;;;;;;13.63;55.40;100333.53;2198196;79;20970;-81
2022/11/03 13:06:03;;;;;;;11.08;4.40;;;;;;;13.53;55.51;100336.13;2191866;79;20963;-83
2022/11/03 13:09:04;;;;;;;13.25;4.22;;;;;;;13.52;56.15;100331.81;2218336;78;21023;-81
2022/11/03 13:15:25;;;;;;;10.03;4.07;;;;;;;13.51;56.15;100312.81;2211860;79;21030;-83
2022/11/03 13:18:26;;;;;;;9.68;3.90;;;;;;;13.58;55.07;100301.77;2210291;79;21128;-83
2022/11/03 13:21:27;;;;;;;11.80;3.98;;;;;;;13.67;56.20;100296.15;2197018;79;21041;-83
2022/11/03 13:24:28;;;;;;;13.35;4.90;;;;;;;13.70;54.38;100293.63;2196600;79;20958;-84
2022/11/03 13:27:29;;;;;;;10.05;4.28;;;;;;;13.68;55.40;100295.16;2179807;79;21056;-82
2022/11/03 13:30:32;;;;;;;10.80;4.53;;;;;;;13.69;55.47;100286.65;2201363;79;20979;-82
2022/11/03 13:33:33;;;;;;;8.00;3.65;;;;;;;13.70;55.27;100278.96;2209203;79;21017;-83
2022/11/03 13:36:34;;;;;;;12.40;4.30;;;;;;;13.66;55.67;100269.17;2202361;79;21583;-83
2022/11/03 13:39:35;;;;;;;14.18;4.55;;;;;;;13.67;54.71;100265.48;2206859;79;21062;-82
2022/11/03 13:42:37;;;;;;;11.35;3.95;;;;;;;13.67;55.23;100263.33;2199288;79;21331;-83
2022/11/03 13:45:38;;;;;;;9.23;4.00;;;;;;;13.59;54.77;100258.91;2203446;79;21052;-84
2022/11/03 13:48:39;;;;;;;9.48;4.20;;;;;;;13.56;54.82;100259.78;2204443;79;20934;-82
2022/11/03 13:51:40;;;;;;;13.53;5.28;;;;;;;13.45;54.33;100246.39;2201997;79;20965;-83
2022/11/03 13:54:41;;;;;;;12.18;4.22;;;;;;;13.36;54.47;100244.32;2196954;79;20997;-82
2022/11/03 13:57:43;;;;;;;10.75;4.45;;;;;;;13.28;54.99;100245.73;2200183;79;21069;-82
2022/11/03 14:00:44;;;;;;;13.28;5.08;;;;;;;13.23;55.23;100240.08;2208352;79;20990;-82
2022/11/03 14:03:45;;;;;;;11.57;4.67;;;;;;;13.19;55.51;100230.30;2197047;79;21037;-82
2022/11/03 14:06:46;;;;;;;12.10;4.30;;;;;;;13.20;55.41;100233.78;2196341;79;21548;-83
2022/11/03 14:09:47;;;;;;;13.38;4.92;;;;;;;13.13;54.75;100224.36;2203834;79;21077;-82
2022/11/03 14:12:48;;;;;;;9.58;4.30;;;;;;;13.04;55.72;100224.63;2154717;81;21471;-82
2022/11/03 14:15:49;;;;;;;10.70;4.08;;;;;;;12.89;55.88;100209.41;2255179;77;21048;-83
2022/11/03 14:18:51;;;;;;;10.88;4.30;;;;;;;12.81;56.05;100215.31;2257961;77;20964;-82
2022/11/03 14:21:52;;;;;;;8.88;4.40;;;;;;;12.70;56.38;100208.59;2257350;77;21489;-83
2022/11/03 14:24:53;;;;;;;13.53;4.87;;;;;;;12.59;56.47;100206.35;2263987;77;22345;-84
2022/11/03 14:27:54;;;;;;;11.15;4.08;;;;;;;12.53;56.64;100202.05;2257079;77;20983;-82
2022/11/03 14:30:58;;;;;;;12.13;4.50;;;;;;;12.52;56.63;100196.89;2262039;77;20996;-82
2022/11/03 14:33:58;;;;;;;7.33;3.37;;;;;;;12.45;56.88;100186.14;2254753;77;20991;-83
2022/11/03 14:36:59;;;;;;;9.80;3.67;;;;;;;12.41;56.88;100192.81;2252041;77;21426;-84
2022/11/03 14:40:00;;;;;;;8.50;4.25;;;;;;;12.36;57.05;100185.88;2265293;77;20988;-83
2022/11/03 14:43:01;;;;;;;10.05;3.45;;;;;;;12.32;57.17;100180.57;2224913;77;20935;-82
2022/11/03 14:46:02;;;;;;;8.15;4.00;;;;;;;12.26;57.30;100177.29;2255017;76;21049;-83
2022/11/03 14:49:03;;;;;;;12.07;3.50;;;;;;;12.20;57.43;100178.00;2262799;77;21013;-82